Time;durP1;ratioP1;P1;durP2;ratioP2;P2;SDS_P1;SDS_P2;PMS_P1;PMS_P2;Temp;Humidity;BMP_temperature;BMP_pressure;BME280_temperature;BME280_humidity;BME280_pressure;Samples;Min_cycle;Max_cycle;Signal;HPM_P1;HPM_P2
2022/09/25 00:00:41;;;;;;;1999.90;999.90;;;13.90;99.90;;;;;;5034412;28;20401;-70
2022/09/25 00:03:07;;;;;;;1999.90;999.90;;;13.80;99.90;;;;;;5034290;28;20419;-69
2022/09/25 00:05:35;;;;;;;1999.90;999.90;;;13.70;99.90;;;;;;5034124;28;20500;-69
2022/09/25 00:08:02;;;;;;;1999.90;999.90;;;13.70;99.90;;;;;;5034016;28;20460;-68
2022/09/25 00:10:28;;;;;;;1999.90;999.90;;;13.80;99.90;;;;;;5033949;28;20409;-68
2022/09/25 00:12:54;;;;;;;1999.90;999.90;;;13.80;99.90;;;;;;5034024;28;20403;-68
2022/09/25 00:15:20;;;;;;;1999.90;999.90;;;13.80;99.90;;;;;;5033967;28;20420;-68
2022/09/25 00:17:46;;;;;;;1999.90;999.90;;;13.80;99.90;;;;;;5033785;28;20403;-68
2022/09/25 00:20:14;;;;;;;1999.90;999.90;;;13.80;99.90;;;;;;5033872;28;20173;-68
2022/09/25 00:22:41;;;;;;;1999.90;999.90;;;13.90;99.90;;;;;;5033957;28;20444;-68
2022/09/25 00:25:13;;;;;;;1999.90;999.90;;;13.90;99.90;;;;;;5033840;28;20474;-68
2022/09/25 00:27:40;;;;;;;1999.90;999.90;;;13.90;99.90;;;;;;5033430;28;20463;-68
2022/09/25 00:30:06;;;;;;;1999.90;999.90;;;14.00;99.90;;;;;;5033982;28;20770;-68
2022/09/25 00:32:32;;;;;;;1999.90;999.90;;;14.00;99.90;;;;;;5033751;28;20411;-68
2022/09/25 00:34:58;;;;;;;1999.90;999.90;;;14.00;99.90;;;;;;5033587;28;20489;-66
2022/09/25 00:37:24;;;;;;;1999.90;999.90;;;14.00;99.90;;;;;;5033443;28;20195;-70
2022/09/25 00:39:49;;;;;;;1999.90;999.90;;;14.10;99.90;;;;;;5033671;28;20182;-70
2022/09/25 00:42:19;;;;;;;1999.90;999.90;;;14.10;99.90;;;;;;5033482;28;20644;-67
2022/09/25 00:44:45;;;;;;;1999.90;999.90;;;14.10;99.90;;;;;;5033505;28;20226;-67
2022/09/25 00:47:14;;;;;;;1999.90;999.90;;;14.10;99.90;;;;;;5033057;28;20482;-69
2022/09/25 00:49:40;;;;;;;1999.90;999.90;;;14.10;99.90;;;;;;5033439;28;20189;-66
2022/09/25 00:52:11;;;;;;;1999.90;999.90;;;14.20;99.90;;;;;;5033395;28;20415;-67
2022/09/25 00:54:57;;;;;;;1999.90;999.90;;;14.20;99.90;;;;;;5033218;28;20413;-67
2022/09/25 00:57:25;;;;;;;1999.90;999.90;;;14.30;99.90;;;;;;5032994;28;20445;-68
2022/09/25 00:59:56;;;;;;;1999.90;999.90;;;14.30;99.90;;;;;;5033233;28;20416;-69
2022/09/25 01:02:33;;;;;;;1999.90;999.90;;;14.40;99.90;;;;;;5033288;28;20468;-67
2022/09/25 01:05:04;;;;;;;1999.90;999.90;;;14.40;99.90;;;;;;5032985;28;20451;-68
2022/09/25 01:07:33;;;;;;;1999.90;999.90;;;14.40;99.90;;;;;;5032615;28;20518;-67
2022/09/25 01:10:01;;;;;;;1999.90;999.90;;;14.30;99.90;;;;;;5033109;28;20425;-66
2022/09/25 01:12:26;;;;;;;1999.90;999.90;;;14.30;99.90;;;;;;5032968;28;20427;-67
2022/09/25 01:14:53;;;;;;;1999.90;999.90;;;14.30;99.90;;;;;;5032855;28;20416;-67
2022/09/25 01:17:28;;;;;;;1999.90;999.90;;;14.30;99.90;;;;;;5032640;28;20183;-67
2022/09/25 01:20:03;;;;;;;1999.90;999.90;;;14.30;99.90;;;;;;5032924;28;20402;-67
2022/09/25 01:22:40;;;;;;;1999.90;999.90;;;14.30;99.90;;;;;;5032228;28;20410;-68
2022/09/25 01:25:26;;;;;;;1999.90;999.90;;;14.30;99.90;;;;;;5032730;28;20434;-68
2022/09/25 01:28:29;;;;;;;1999.90;999.90;;;14.30;99.90;;;;;;5032243;28;20855;-68
2022/09/25 01:31:02;;;;;;;1999.90;999.90;;;14.30;99.90;;;;;;5032633;28;20400;-67
2022/09/25 01:33:40;;;;;;;1999.90;999.90;;;14.30;99.90;;;;;;5032563;28;20437;-67
2022/09/25 01:36:35;;;;;;;1999.90;999.90;;;14.20;99.90;;;;;;5032435;28;20464;-68
2022/09/25 01:39:16;;;;;;;1999.90;999.90;;;14.20;99.90;;;;;;5032591;28;20528;-70
2022/09/25 01:42:08;;;;;;;1999.90;999.90;;;14.20;99.90;;;;;;5032604;28;20425;-67
2022/09/25 01:44:44;;;;;;;1999.90;999.90;;;14.30;99.90;;;;;;5031146;28;20450;-68
2022/09/25 01:47:21;;;;;;;1999.90;999.90;;;14.20;99.90;;;;;;5032051;28;20512;-69
2022/09/25 01:49:52;;;;;;;1999.90;999.90;;;14.20;99.90;;;;;;5032337;28;20749;-67
2022/09/25 01:52:24;;;;;;;1999.90;999.90;;;14.20;99.90;;;;;;5032305;28;20419;-67
2022/09/25 01:54:55;;;;;;;1999.90;999.90;;;14.20;99.90;;;;;;5032397;28;20534;-67
2022/09/25 01:57:28;;;;;;;1999.90;999.90;;;14.10;99.90;;;;;;5031989;28;20889;-67
2022/09/25 02:00:13;;;;;;;1999.90;999.90;;;14.10;99.90;;;;;;5032285;28;20441;-66
2022/09/25 02:02:45;;;;;;;1999.90;999.90;;;14.20;99.90;;;;;;5032138;28;20855;-67
2022/09/25 02:05:19;;;;;;;1999.90;999.90;;;14.20;99.90;;;;;;5032032;28;20455;-67
2022/09/25 02:07:52;;;;;;;1999.90;999.90;;;14.20;99.90;;;;;;5031996;28;20476;-69
2022/09/25 02:10:23;;;;;;;1999.90;999.90;;;14.20;99.90;;;;;;5032289;28;20459;-67
2022/09/25 02:12:53;;;;;;;1999.90;999.90;;;14.20;99.90;;;;;;5032112;28;20441;-69
2022/09/25 02:15:23;;;;;;;1999.90;999.90;;;14.20;99.90;;;;;;5031970;28;20430;-67
2022/09/25 02:20:49;;;;;;;1999.90;999.90;;;14.10;99.90;;;;;;5032275;28;20456;-67
2022/09/25 02:23:33;;;;;;;1999.90;999.90;;;14.00;99.90;;;;;;5031973;28;20756;-67
2022/09/25 02:25:59;;;;;;;1999.90;999.90;;;14.10;99.90;;;;;;5031790;28;20506;-69
2022/09/25 02:28:25;;;;;;;1999.90;999.90;;;14.00;99.90;;;;;;5031598;28;20411;-67
2022/09/25 02:30:56;;;;;;;1999.90;999.90;;;14.10;99.90;;;;;;5031824;28;20179;-67
2022/09/25 02:33:23;;;;;;;1999.90;999.90;;;14.00;99.90;;;;;;5031893;28;20486;-67
2022/09/25 02:35:48;;;;;;;1999.90;999.90;;;13.90;99.90;;;;;;5035823;28;20426;-68
2022/09/25 02:38:14;;;;;;;1999.90;999.90;;;13.90;99.90;;;;;;5035683;28;20959;-67
2022/09/25 02:40:52;;;;;;;1999.90;999.90;;;13.90;99.90;;;;;;5035817;28;20179;-68
2022/09/25 02:43:39;;;;;;;1999.90;999.90;;;13.90;99.90;;;;;;5035796;28;20470;-68
2022/09/25 02:46:27;;;;;;;1999.90;999.90;;;13.90;99.90;;;;;;5035488;28;20532;-69
2022/09/25 02:49:15;;;;;;;1999.90;999.90;;;13.90;99.90;;;;;;5035505;28;20411;-68
2022/09/25 02:51:59;;;;;;;1999.90;999.90;;;13.90;99.90;;;;;;5035646;28;20406;-68
2022/09/25 02:54:37;;;;;;;1999.90;999.90;;;13.80;99.90;;;;;;5035614;28;20508;-68
2022/09/25 02:57:14;;;;;;;1999.90;999.90;;;13.80;99.90;;;;;;5035313;28;20894;-68
2022/09/25 02:59:47;;;;;;;1999.90;999.90;;;13.80;99.90;;;;;;5035476;28;20443;-68
2022/09/25 03:02:15;;;;;;;1999.90;999.90;;;13.70;99.90;;;;;;5035422;28;20406;-68
2022/09/25 03:04:43;;;;;;;1999.90;999.90;;;13.70;99.90;;;;;;5035156;28;20409;-68
2022/09/25 03:07:08;;;;;;;1999.90;999.90;;;13.70;99.90;;;;;;5035021;28;20813;-67
2022/09/25 03:09:38;;;;;;;1999.90;999.90;;;13.70;99.90;;;;;;5035272;28;20410;-68
2022/09/25 03:12:04;;;;;;;1999.90;999.90;;;13.70;99.90;;;;;;5035248;28;20166;-67
2022/09/25 03:14:30;;;;;;;1999.90;999.90;;;13.70;99.90;;;;;;5035111;28;20402;-68
2022/09/25 03:17:02;;;;;;;1999.90;999.90;;;13.70;99.90;;;;;;5034915;28;20170;-68
2022/09/25 03:19:28;;;;;;;1999.90;999.90;;;13.80;99.90;;;;;;5035100;28;20492;-68
2022/09/25 03:21:54;;;;;;;1999.90;999.90;;;13.80;99.90;;;;;;5035114;28;20761;-68
2022/09/25 03:24:20;;;;;;;1999.90;999.90;;;13.70;99.90;;;;;;5035047;28;20449;-68
2022/09/25 03:26:46;;;;;;;1999.90;999.90;;;13.80;99.90;;;;;;5034626;28;20332;-68
2022/09/25 03:29:13;;;;;;;1999.90;999.90;;;13.70;99.90;;;;;;5034882;28;20498;-68
2022/09/25 03:31:41;;;;;;;1999.90;999.90;;;13.70;99.90;;;;;;5035000;28;20406;-68
2022/09/25 03:34:07;;;;;;;1999.90;999.90;;;13.70;99.90;;;;;;5034990;28;20885;-68
2022/09/25 03:36:34;;;;;;;1999.90;999.90;;;13.70;99.90;;;;;;5034454;28;20492;-68
2022/09/25 03:39:00;;;;;;;1999.90;999.90;;;13.70;99.90;;;;;;5034693;28;20934;-68
2022/09/25 03:41:31;;;;;;;1999.90;999.90;;;13.60;99.90;;;;;;5034714;28;20407;-67
2022/09/25 03:43:57;;;;;;;1999.90;999.90;;;13.60;99.90;;;;;;5034668;28;20178;-68
2022/09/25 03:46:28;;;;;;;1999.90;999.90;;;13.70;99.90;;;;;;5033848;28;20464;-68
2022/09/25 03:48:54;;;;;;;1999.90;999.90;;;13.60;99.90;;;;;;5034403;28;20404;-68
2022/09/25 03:51:21;;;;;;;1999.90;999.90;;;13.60;99.90;;;;;;5034466;28;20406;-68
2022/09/25 03:53:47;;;;;;;1999.90;999.90;;;13.50;99.90;;;;;;5034481;28;20503;-68
2022/09/25 03:56:16;;;;;;;1999.90;999.90;;;13.50;99.90;;;;;;5034297;28;20840;-68
2022/09/25 03:58:42;;;;;;;1999.90;999.90;;;13.40;99.90;;;;;;5034401;28;20960;-70
2022/09/25 04:01:09;;;;;;;1999.90;999.90;;;13.40;99.90;;;;;;5034341;28;20408;-69
2022/09/25 04:03:36;;;;;;;1999.90;999.90;;;13.30;99.90;;;;;;5034368;28;20410;-69
2022/09/25 04:06:06;;;;;;;1999.90;999.90;;;13.20;99.90;;;;;;5033892;28;20487;-68
2022/09/25 04:08:34;;;;;;;1999.90;999.90;;;13.10;99.90;;;;;;5034010;28;20431;-69
2022/09/25 04:11:01;;;;;;;1999.90;999.90;;;13.10;99.90;;;;;;5034159;28;20405;-69
2022/09/25 04:13:30;;;;;;;1999.90;999.90;;;13.00;99.90;;;;;;5034082;28;20407;-69
2022/09/25 04:15:57;;;;;;;1999.90;999.90;;;13.00;99.90;;;;;;5033996;28;20436;-69
2022/09/25 04:18:23;;;;;;;1999.90;999.90;;;13.00;99.90;;;;;;5033934;28;20925;-69
2022/09/25 04:20:49;;;;;;;1999.90;999.90;;;13.00;99.90;;;;;;5033888;28;20411;-69
2022/09/25 04:23:15;;;;;;;1999.90;999.90;;;13.00;99.90;;;;;;5033993;28;20546;-69
2022/09/25 04:25:41;;;;;;;1999.90;999.90;;;12.90;99.90;;;;;;5033807;28;20443;-68
2022/09/25 04:28:06;;;;;;;1999.90;999.90;;;13.00;99.90;;;;;;5033484;28;21031;-68
2022/09/25 04:30:33;;;;;;;1999.90;999.90;;;13.00;99.90;;;;;;5033730;28;20200;-68
2022/09/25 04:35:43;;;;;;;1999.90;999.90;;;13.00;99.90;;;;;;5033921;28;20419;-68
2022/09/25 04:38:08;;;;;;;1999.90;999.90;;;13.00;99.90;;;;;;5033433;28;20400;-68
2022/09/25 04:40:35;;;;;;;1999.90;999.90;;;13.00;99.90;;;;;;5033600;28;20415;-68
2022/09/25 04:43:03;;;;;;;1999.90;999.90;;;13.00;99.90;;;;;;5033594;28;20528;-68
2022/09/25 04:45:29;;;;;;;1999.90;999.90;;;13.00;99.90;;;;;;5033521;28;20463;-68
2022/09/25 04:47:58;;;;;;;1999.90;999.90;;;13.00;99.90;;;;;;5033109;28;20526;-67
2022/09/25 04:50:25;;;;;;;1999.90;999.90;;;13.00;99.90;;;;;;5033445;28;20430;-67
2022/09/25 04:52:51;;;;;;;1999.90;999.90;;;13.00;99.90;;;;;;5033395;28;20977;-68
2022/09/25 04:55:18;;;;;;;1999.90;999.90;;;13.00;99.90;;;;;;5033384;28;20429;-68
2022/09/25 04:57:44;;;;;;;1999.90;999.90;;;13.10;99.90;;;;;;5032047;28;20403;-67
2022/09/25 05:00:10;;;;;;;1999.90;999.90;;;13.10;99.90;;;;;;5033268;28;20419;-68
2022/09/25 05:02:36;;;;;;;1999.90;999.90;;;13.10;99.90;;;;;;5033093;28;20409;-68
2022/09/25 05:05:02;;;;;;;1999.90;999.90;;;13.10;99.90;;;;;;5048224;22;20457;-68
2022/09/25 05:07:28;;;;;;;1999.90;999.90;;;13.10;99.90;;;;;;5012769;28;20240;-68
2022/09/25 05:09:53;;;;;;;1999.90;999.90;;;13.10;99.90;;;;;;5013321;28;20458;-69
2022/09/25 05:12:19;;;;;;;1999.90;999.90;;;13.10;99.90;;;;;;5013280;28;20167;-70
2022/09/25 05:14:45;;;;;;;1999.90;999.90;;;13.00;99.90;;;;;;5013234;28;20169;-70
2022/09/25 05:17:11;;;;;;;1999.90;999.90;;;13.00;99.90;;;;;;5012806;28;21133;-70
2022/09/25 05:19:37;;;;;;;1999.90;999.90;;;13.00;99.90;;;;;;5013274;28;20169;-68
2022/09/25 05:22:03;;;;;;;1999.90;999.90;;;13.00;99.90;;;;;;5013167;28;20416;-68
2022/09/25 05:24:30;;;;;;;1999.90;999.90;;;12.90;99.90;;;;;;5013103;28;20400;-68
2022/09/25 05:26:56;;;;;;;1999.90;999.90;;;12.90;99.90;;;;;;5012618;28;20455;-68
2022/09/25 05:29:21;;;;;;;1999.90;999.90;;;12.90;99.90;;;;;;5013010;28;20408;-69
2022/09/25 05:31:48;;;;;;;1999.90;999.90;;;12.80;99.90;;;;;;5012948;28;20396;-69
2022/09/25 05:34:15;;;;;;;1999.90;999.90;;;12.80;99.90;;;;;;5013213;28;20222;-69
2022/09/25 05:36:41;;;;;;;1999.90;999.90;;;12.80;99.90;;;;;;5012557;28;20432;-69
2022/09/25 05:39:09;;;;;;;1999.90;999.90;;;12.80;99.90;;;;;;5012942;28;20420;-69
2022/09/25 05:41:35;;;;;;;1999.90;999.90;;;12.70;99.90;;;;;;5012837;28;20420;-68
2022/09/25 05:44:05;;;;;;;1999.90;999.90;;;12.70;99.90;;;;;;5012807;28;20504;-68
2022/09/25 05:46:32;;;;;;;1999.90;999.90;;;12.70;99.90;;;;;;5012333;28;20449;-72
2022/09/25 05:48:59;;;;;;;1999.90;999.90;;;12.60;99.90;;;;;;5012554;28;20459;-68
2022/09/25 05:51:24;;;;;;;1999.90;999.90;;;12.70;99.90;;;;;;5012684;28;20400;-68
2022/09/25 05:53:52;;;;;;;1999.90;999.90;;;12.70;99.90;;;;;;5012588;28;20400;-68
2022/09/25 05:56:18;;;;;;;1999.90;999.90;;;12.70;99.90;;;;;;5012387;28;20566;-69
2022/09/25 05:58:44;;;;;;;1999.90;999.90;;;12.70;99.90;;;;;;5012218;28;20460;-67
2022/09/25 06:01:09;;;;;;;1999.90;999.90;;;12.70;99.90;;;;;;5012563;28;20509;-67
2022/09/25 06:03:35;;;;;;;1999.90;999.90;;;12.70;99.90;;;;;;5012465;28;20174;-69
2022/09/25 06:06:01;;;;;;;1999.90;999.90;;;12.60;99.90;;;;;;5012207;28;20210;-68
2022/09/25 06:08:31;;;;;;;1999.90;999.90;;;12.50;99.90;;;;;;5012139;28;20170;-68
2022/09/25 06:10:57;;;;;;;1999.90;999.90;;;12.60;99.90;;;;;;5012471;28;20244;-69
2022/09/25 06:13:24;;;;;;;1999.90;999.90;;;12.60;99.90;;;;;;5012362;28;20767;-69
2022/09/25 06:15:51;;;;;;;1999.90;999.90;;;12.60;99.90;;;;;;5012298;28;20424;-68
2022/09/25 06:18:21;;;;;;;1999.90;999.90;;;12.70;99.90;;;;;;5012186;28;20766;-68
2022/09/25 06:20:48;;;;;;;1999.90;999.90;;;12.70;99.90;;;;;;5012246;28;20913;-69
2022/09/25 06:23:14;;;;;;;1999.90;999.90;;;12.70;99.90;;;;;;5012259;28;20405;-69
2022/09/25 06:25:40;;;;;;;1999.90;999.90;;;12.70;99.90;;;;;;5012121;28;20437;-69
2022/09/25 06:28:06;;;;;;;1999.90;999.90;;;12.70;99.90;;;;;;5011753;28;20834;-69
2022/09/25 06:30:33;;;;;;;1999.90;999.90;;;12.70;99.90;;;;;;5012176;28;20170;-69
2022/09/25 06:33:08;;;;;;;1999.90;999.90;;;12.70;99.90;;;;;;5012122;28;20879;-69
2022/09/25 06:35:34;;;;;;;1999.90;999.90;;;12.70;99.90;;;;;;5012305;28;20500;-69
2022/09/25 06:38:00;;;;;;;1999.90;999.90;;;12.70;99.90;;;;;;5011856;28;20404;-68
2022/09/25 06:40:28;;;;;;;1999.90;999.90;;;12.70;99.90;;;;;;5012029;28;20407;-69
2022/09/25 06:43:00;;;;;;;1999.90;999.90;;;12.70;99.90;;;;;;5012131;28;20797;-68
2022/09/25 06:45:27;;;;;;;1999.90;999.90;;;12.70;99.90;;;;;;5011983;28;20531;-68
2022/09/25 06:47:56;;;;;;;1999.90;999.90;;;12.80;99.90;;;;;;5011724;28;20814;-69
2022/09/25 06:50:30;;;;;;;1999.90;999.90;;;12.90;99.90;;;;;;5012054;28;20401;-68
2022/09/25 06:52:59;;;;;;;1999.90;999.90;;;12.80;99.90;;;;;;5011973;28;20820;-68
2022/09/25 06:55:26;;;;;;;1999.90;999.90;;;12.90;99.90;;;;;;5012026;28;20428;-70
2022/09/25 06:57:52;;;;;;;1999.90;999.90;;;12.80;99.90;;;;;;5011617;28;20420;-69
2022/09/25 07:00:17;;;;;;;1999.90;999.90;;;12.90;99.90;;;;;;5011976;28;20403;-69
2022/09/25 07:05:27;;;;;;;1999.90;999.90;;;12.90;99.90;;;;;;5011675;28;20212;-69
2022/09/25 07:07:56;;;;;;;1999.90;999.90;;;12.90;99.90;;;;;;5011490;28;20451;-68
2022/09/25 07:10:21;;;;;;;1999.90;999.90;;;13.00;99.90;;;;;;5011956;28;20184;-70
2022/09/25 07:12:47;;;;;;;1999.90;999.90;;;13.00;99.90;;;;;;5011892;28;20412;-70
2022/09/25 07:15:14;;;;;;;1999.90;999.90;;;13.00;99.90;;;;;;5011700;28;20685;-69
2022/09/25 07:17:43;;;;;;;1999.90;999.90;;;13.10;99.90;;;;;;5011445;28;20167;-69
2022/09/25 07:20:14;;;;;;;1999.90;999.90;;;13.10;99.90;;;;;;5012944;28;20417;-67
2022/09/25 07:22:40;;;;;;;1999.90;999.90;;;13.20;99.90;;;;;;5015350;28;20402;-69
2022/09/25 07:25:08;;;;;;;1999.90;999.90;;;13.20;99.90;;;;;;5015257;28;20461;-69
2022/09/25 07:27:33;;;;;;;1999.90;999.90;;;13.30;99.90;;;;;;5014898;28;20827;-67
2022/09/25 07:30:00;;;;;;;1999.90;999.90;;;13.30;99.90;;;;;;5015170;28;20410;-67
2022/09/25 07:32:26;;;;;;;1999.90;999.90;;;13.40;99.90;;;;;;5015231;28;20170;-68
2022/09/25 07:34:51;;;;;;;1999.90;999.90;;;13.30;99.90;;;;;;5015026;28;20485;-68
2022/09/25 07:37:17;;;;;;;1999.90;999.90;;;13.40;99.90;;;;;;5014792;28;20546;-68
2022/09/25 07:39:43;;;;;;;1999.90;999.90;;;13.40;99.90;;;;;;5015067;28;20166;-68
2022/09/25 07:42:09;;;;;;;1999.90;999.90;;;13.40;99.90;;;;;;5015007;28;20174;-68
2022/09/25 07:44:35;;;;;;;1999.90;999.90;;;13.30;99.90;;;;;;5014865;28;20944;-70
2022/09/25 07:47:02;;;;;;;1999.90;999.90;;;13.30;99.90;;;;;;5014432;28;20451;-69
2022/09/25 07:49:28;;;;;;;1999.90;999.90;;;13.30;99.90;;;;;;5015020;28;20173;-68
2022/09/25 07:51:54;;;;;;;1999.90;999.90;;;13.30;99.90;;;;;;5015043;28;20411;-69
2022/09/25 07:54:20;;;;;;;1999.90;999.90;;;13.30;99.90;;;;;;5014802;28;20455;-69
2022/09/25 07:56:45;;;;;;;1999.90;999.90;;;13.30;99.90;;;;;;5014461;28;20258;-68
2022/09/25 07:59:11;;;;;;;1999.90;999.90;;;13.30;99.90;;;;;;5017294;28;20260;-70
2022/09/25 08:01:37;;;;;;;1999.90;999.90;;;13.20;99.90;;;;;;5034385;28;20559;-68
2022/09/25 08:04:02;;;;;;;1999.90;999.90;;;13.30;99.90;;;;;;5034365;28;20168;-69
2022/09/25 08:06:28;;;;;;;1999.90;999.90;;;13.40;99.90;;;;;;5033970;28;20474;-69
2022/09/25 08:08:54;;;;;;;1999.90;999.90;;;13.50;99.90;;;;;;5034198;28;20177;-68
2022/09/25 08:11:20;;;;;;;1999.90;999.90;;;13.60;99.90;;;;;;5034274;28;20170;-68
2022/09/25 08:13:46;;;;;;;1999.90;999.90;;;13.70;99.90;;;;;;5034188;28;20189;-69
2022/09/25 08:16:14;;;;;;;1999.90;999.90;;;13.60;99.90;;;;;;5033868;28;20421;-67
2022/09/25 08:18:41;;;;;;;1999.90;999.90;;;13.60;99.90;;;;;;5033909;28;20529;-70
2022/09/25 08:21:08;;;;;;;1999.90;999.90;;;13.70;99.90;;;;;;5033994;28;20400;-69
2022/09/25 08:23:33;;;;;;;1999.90;999.90;;;13.80;99.90;;;;;;5034117;28;20770;-67
2022/09/25 08:25:59;;;;;;;1999.90;999.90;;;13.80;99.90;;;;;;5033637;28;20434;-67
2022/09/25 08:28:25;;;;;;;1999.90;999.90;;;13.80;99.90;;;;;;5033728;28;20628;-67
2022/09/25 08:30:50;;;;;;;1999.90;999.90;;;13.70;99.90;;;;;;5033752;28;20197;-67
2022/09/25 08:33:16;;;;;;;1999.90;999.90;;;13.80;99.90;;;;;;5033718;28;20412;-68
2022/09/25 08:35:42;;;;;;;1999.90;999.90;;;13.90;99.90;;;;;;5033542;28;20428;-68
2022/09/25 08:38:10;;;;;;;1999.90;999.90;;;14.00;99.90;;;;;;5033353;28;20168;-69
2022/09/25 08:40:53;;;;;;;1999.90;999.90;;;14.10;99.90;;;;;;5020149;28;20188;-66
2022/09/25 08:43:23;;;;;;;1999.90;999.90;;;14.10;99.90;;;;;;5012898;28;20418;-65
2022/09/25 08:51:22;;;;;;;1999.90;999.90;;;14.40;99.90;;;;;;5013308;28;20403;-67
2022/09/25 08:53:48;;;;;;;1999.90;999.90;;;14.60;99.90;;;;;;5012975;28;20399;-68
2022/09/25 08:56:18;;;;;;;1999.90;999.90;;;14.70;99.90;;;;;;5013107;28;20257;-69
2022/09/25 08:58:52;;;;;;;1999.90;999.90;;;14.70;99.90;;;;;;5013331;28;20659;-65
2022/09/25 09:01:25;;;;;;;1999.90;999.90;;;14.70;99.90;;;;;;5013439;28;20772;-66
2022/09/25 09:04:05;;;;;;;1999.90;999.90;;;14.70;99.90;;;;;;5013032;28;20749;-66
2022/09/25 09:06:32;;;;;;;1999.90;999.90;;;14.90;99.90;;;;;;5012512;28;20546;-69
2022/09/25 09:09:06;;;;;;;1999.90;999.90;;;15.10;99.90;;;;;;5012691;28;20411;-69
2022/09/25 09:11:46;;;;;;;1999.90;999.90;;;15.30;99.90;;;;;;5012948;28;20396;-69
2022/09/25 09:14:16;;;;;;;1999.90;999.90;;;15.40;99.90;;;;;;5012836;28;20400;-69
2022/09/25 09:16:46;;;;;;;1999.90;999.90;;;15.30;99.90;;;;;;5012695;28;20853;-69
2022/09/25 09:19:12;;;;;;;1999.90;999.90;;;15.40;99.90;;;;;;5012925;28;20454;-69
2022/09/25 09:21:49;;;;;;;1999.90;999.90;;;15.60;99.90;;;;;;5012708;28;20418;-69
2022/09/25 09:24:21;;;;;;;1999.90;999.90;;;15.70;99.90;;;;;;5012793;28;20249;-66
2022/09/25 09:27:18;;;;;;;1999.90;999.90;;;15.80;99.90;;;;;;5010145;28;20471;-66
2022/09/25 09:29:55;;;;;;;1999.90;999.90;;;15.90;99.90;;;;;;5011895;28;20469;-66
2022/09/25 09:32:42;;;;;;;1999.90;999.90;;;15.90;99.90;;;;;;5012160;28;20476;-66
2022/09/25 09:35:30;;;;;;;1999.90;999.90;;;15.80;99.90;;;;;;5012140;28;20899;-66
2022/09/25 09:37:55;;;;;;;1999.90;999.90;;;15.90;99.90;;;;;;5011421;28;20972;-66
2022/09/25 09:40:34;;;;;;;1999.90;999.90;;;16.20;99.90;;;;;;5012251;28;20513;-66
2022/09/25 09:43:21;;;;;;;1999.90;999.90;;;16.50;99.90;;;;;;5011416;28;20180;-66
2022/09/25 09:46:14;;;;;;;1999.90;999.90;;;16.80;99.90;;;;;;5011887;28;20810;-66
2022/09/25 09:48:54;;;;;;;1999.90;999.90;;;17.10;99.90;;;;;;5011674;28;20416;-66
2022/09/25 09:51:27;;;;;;;1999.90;999.90;;;16.90;99.90;;;;;;5011382;28;20410;-65
2022/09/25 09:53:59;;;;;;;1999.90;999.90;;;16.70;99.90;;;;;;5011762;28;20401;-64
2022/09/25 09:56:29;;;;;;;1999.90;999.90;;;16.40;99.90;;;;;;5012310;28;20422;-65
2022/09/25 09:59:13;;;;;;;1999.90;999.90;;;16.20;99.90;;;;;;5012443;28;20720;-66
2022/09/25 10:01:41;;;;;;;1999.90;999.90;;;15.90;99.90;;;;;;5012061;28;20800;-66
2022/09/25 10:04:06;;;;;;;1999.90;999.90;;;15.60;99.90;;;;;;5011822;28;20451;-68
2022/09/25 10:06:37;;;;;;;1999.90;999.90;;;15.60;99.90;;;;;;5010606;28;20864;-66
2022/09/25 10:09:03;;;;;;;1999.90;999.90;;;15.60;99.90;;;;;;5011579;28;20171;-66
2022/09/25 10:11:31;;;;;;;1999.90;999.90;;;15.90;99.90;;;;;;5011710;28;20464;-67
2022/09/25 10:14:01;;;;;;;1999.90;999.90;;;16.10;99.90;;;;;;5011157;28;20460;-66
2022/09/25 10:16:27;;;;;;;1999.90;999.90;;;16.10;99.90;;;;;;5011683;28;20427;-67
2022/09/25 10:19:01;;;;;;;1999.90;999.90;;;16.00;99.90;;;;;;5011878;28;20403;-67
2022/09/25 10:21:31;;;;;;;1999.90;999.90;;;15.80;99.90;;;;;;5011405;28;20204;-68
2022/09/25 10:23:58;;;;;;;1999.90;999.90;;;15.70;99.90;;;;;;5010839;28;20403;-68
2022/09/25 10:26:37;;;;;;;1999.90;999.90;;;15.70;99.90;;;;;;5011230;28;20541;-68
2022/09/25 10:29:09;;;;;;;1999.90;999.90;;;16.00;99.90;;;;;;5010490;28;20433;-68
2022/09/25 10:31:39;;;;;;;1999.90;999.90;;;16.10;99.90;;;;;;5011248;28;20815;-68
2022/09/25 10:34:28;;;;;;;1999.90;999.90;;;16.20;99.90;;;;;;5011258;28;20493;-68
2022/09/25 10:36:54;;;;;;;1999.90;999.90;;;16.20;99.90;;;;;;5009842;28;20434;-68
2022/09/25 10:39:22;;;;;;;1999.90;999.90;;;16.50;99.90;;;;;;5010987;28;20806;-68
2022/09/25 10:41:48;;;;;;;1999.90;999.90;;;17.00;99.90;;;;;;5011078;28;20411;-68
2022/09/25 10:44:40;;;;;;;1999.90;999.90;;;17.40;99.90;;;;;;5010450;28;20898;-68
2022/09/25 10:50:15;;;;;;;1999.90;999.90;;;17.70;99.90;;;;;;5010826;28;20395;-69
2022/09/25 10:52:52;;;;;;;1999.90;999.90;;;18.20;99.90;;;;;;5011160;28;20498;-69
2022/09/25 10:55:24;;;;;;;1999.90;999.90;;;18.40;99.90;;;;;;5012845;28;20450;-68
2022/09/25 10:57:57;;;;;;;1999.90;999.90;;;18.40;99.90;;;;;;5014132;28;20442;-69
2022/09/25 11:00:25;;;;;;;1999.90;999.90;;;18.30;99.90;;;;;;5015146;28;20442;-68
2022/09/25 11:02:59;;;;;;;1999.90;999.90;;;18.10;99.90;;;;;;5015040;28;20469;-69
2022/09/25 11:05:32;;;;;;;1999.90;999.90;;;17.70;99.90;;;;;;5014279;28;20475;-69
2022/09/25 11:08:04;;;;;;;1999.90;999.90;;;17.30;99.90;;;;;;5014783;28;20498;-68
2022/09/25 11:10:43;;;;;;;1999.90;999.90;;;17.20;99.90;;;;;;5014633;28;20409;-68
2022/09/25 11:13:23;;;;;;;1999.90;999.90;;;17.30;99.90;;;;;;5012846;28;20936;-68
2022/09/25 11:15:52;;;;;;;1999.90;999.90;;;17.40;99.90;;;;;;5014671;28;20468;-67
2022/09/25 11:18:44;;;;;;;1999.90;999.90;;;17.20;99.90;;;;;;5014251;28;20407;-68
2022/09/25 11:21:19;;;;;;;1999.90;999.90;;;17.20;99.90;;;;;;5011135;28;20428;-68
2022/09/25 11:24:05;;;;;;;1999.90;999.90;;;17.30;99.90;;;;;;5014312;28;20416;-67
2022/09/25 11:26:41;;;;;;;1999.90;999.90;;;17.70;99.90;;;;;;5013792;28;20458;-68
2022/09/25 11:29:32;;;;;;;1999.90;999.90;;;17.70;99.90;;;;;;5014243;28;20403;-70
2022/09/25 11:32:18;;;;;;;1999.90;999.90;;;17.90;99.90;;;;;;5005985;28;21124;-67
2022/09/25 11:35:06;;;;;;;1999.90;999.90;;;17.70;99.90;;;;;;5013717;28;20399;-68
2022/09/25 11:37:55;;;;;;;1999.90;999.90;;;17.70;99.90;;;;;;5013534;28;20407;-68
2022/09/25 11:43:52;;;;;;;1999.90;999.90;;;18.20;99.90;;;;;;5014056;28;20405;-69
2022/09/25 11:46:27;;;;;;;1999.90;999.90;;;18.80;99.90;;;;;;5013774;28;20431;-68
2022/09/25 11:49:02;;;;;;;1999.90;999.90;;;19.20;99.90;;;;;;5013055;28;20480;-69
2022/09/25 11:51:39;;;;;;;1999.90;999.90;;;19.30;99.90;;;;;;5013864;28;20398;-69
2022/09/25 11:54:26;;;;;;;1999.90;999.90;;;19.30;99.90;;;;;;5013980;28;20421;-69
2022/09/25 11:57:02;;;;;;;1999.90;999.90;;;18.90;99.90;;;;;;5012949;28;20435;-69
2022/09/25 11:59:37;;;;;;;1999.90;999.90;;;18.60;99.90;;;;;;5014091;28;20491;-69
2022/09/25 12:02:20;;;;;;;1999.90;999.90;;;19.10;99.90;;;;;;5013875;28;20769;-69
2022/09/25 12:04:58;;;;;;;1999.90;999.90;;;20.20;99.90;;;;;;5013407;28;20410;-69
2022/09/25 12:07:39;;;;;;;1999.90;999.90;;;21.10;99.90;;;;;;5012368;28;20455;-69
2022/09/25 12:10:08;;;;;;;1999.90;999.90;;;21.80;97.70;;;;;;5013725;28;20488;-69
2022/09/25 12:12:47;;;;;;;1999.90;999.90;;;22.00;88.20;;;;;;5013091;28;20397;-69
2022/09/25 12:15:23;;;;;;;1999.90;999.90;;;21.80;71.30;;;;;;5013267;28;20427;-68
2022/09/25 12:17:59;;;;;;;1999.90;999.90;;;21.50;68.50;;;;;;5012660;28;20406;-68
2022/09/25 12:21:19;;;;;;;1999.90;999.90;;;21.20;67.40;;;;;;5013178;28;20427;-68
2022/09/25 12:24:11;;;;;;;1999.90;999.90;;;21.30;82.10;;;;;;4952792;28;20474;-69
2022/09/25 12:26:54;;;;;;;1999.90;999.90;;;21.90;85.80;;;;;;4951887;28;21112;-69
2022/09/25 12:29:47;;;;;;;1999.90;999.90;;;22.20;78.00;;;;;;4998592;28;20821;-69
2022/09/25 12:32:52;;;;;;;1999.90;999.90;;;23.10;71.80;;;;;;5013255;28;20743;-68
2022/09/25 12:35:21;;;;;;;1999.90;999.90;;;23.70;58.70;;;;;;4951852;28;20413;-68
2022/09/25 12:38:02;;;;;;;1999.90;999.90;;;22.90;64.60;;;;;;5002376;28;20440;-68